Accueil
METAR-TAF:

METAR-TAF

Aéroports :

Suceava, Roumanie

latitude: 47-39N, longitude: 026-15E, altitude: 351 m

Observation

Le bulletin a été fait il y a 23 minutes, à 23:30 UTC
Vent 6 kt de nord/nord-ouest
Température 8°C
Humidité 87%
Pression 1025 hPa
Visibilité: 8000 m
Quelques nuages à une hauteur de 3700 ft

METAR: LRSV 212330Z 34006KT 8000 FEW037 08/06 Q1025

Heure: 02:53 (23:53 UTC)

Prévision

Le bulletin a été fait il y a 53 minutes, à 23:00 UTC
Prévision valable du 22 à 00 UTC au 22 à 09 UTC
Vent 8 kt de nord/nord-ouest
Visibilité 10 km ou plus
pas de nuages en-dessous de 1500 mètres et pas de cumulonimbus.
Temporairement
du 22 à 00 UTC au 22 à 05 UTC
Visibilité: 3000 m
Nuages fragmentés à une hauteur de 1000 ft
brume

TAF: LRSV 212300Z 2200/2209 34008KT CAVOK TEMPO 2200/2205 3000 BR BKN010

Observations et prévisions météorologiques de plus de 4000 aéroports (messages METAR et TAF).

Les stations disponibles sont représentées par des disques jaunes et rouges sur la carte.

Passer la souris dessus pour voir le nom de la station.

Cliquer dessus pour voir les observations et prévisions météorologiques.

Pour changer de carte: cliquez sur les boutons verts avec une croix noire pour zoomer, sur le bouton vert avec un tiret pour effectuer un zoom arrière, ou sur les flèches vertes pour les cartes adjacentes.


METAR-TAF: